Falcon — WDH2087 — position and weather

sailwx.info

Track history (hours):
 
Tides and Currents Weather Stations Pressure Air Temp Water Temp Dewpoint Dewpoint Depression Visibility Wind Speed Wind Dir Waves Ship Positions

Falcon

Owner: Vane Line Bunkering, Inc., Philadelphia, PA. More information available from US FCC via Universal Licensing System.

Last reported at 2018-Aug-04 15:24 UTC. Time now 2018-Aug-19 15:18 UTC.
Position N 36°53' W 076°20'.
Warning: this ship's position is 14 days out of date.

; draft 3.5 m.

MMSI: 367594260.

Date/timePositionNaut miles runAvg speedWind from/ knotsBaromVisibWave heightAir tempDewpointWater temp
2018-Aug-04 15:24N 36°53' W 076°20'3 7.2
2018-Aug-04 15:00N 36°50' W 076°18'2 4.1
2018-Aug-04 14:30N 36°48' W 076°17'0 0.9
2018-Aug-04 14:00N 36°48' W 076°18'0 0.0
2018-Aug-04 13:30N 36°48' W 076°18'0 0.0
2018-Aug-04 13:00N 36°48' W 076°18'0 0.0
2018-Aug-04 12:30N 36°48' W 076°18'0 0.0
2018-Aug-04 12:00N 36°48' W 076°18'0 0.0
2018-Aug-04 11:30N 36°48' W 076°18'0 0.0
2018-Aug-04 11:00N 36°48' W 076°18'0 0.0
2018-Aug-04 10:30N 36°48' W 076°18'0 0.9
2018-Aug-04 10:00N 36°48' W 076°17'0 0.0
2018-Aug-04 09:30N 36°48' W 076°17'1 3.0
2018-Aug-04 09:00N 36°50' W 076°18'3 5.7
2018-Aug-04 08:30N 36°52' W 076°20'  
2018-Jul-28 16:19N 36°53' W 076°20'2 6.9
2018-Jul-28 16:00N 36°51' W 076°18'3 6.5
2018-Jul-28 15:31N 36°48' W 076°17'0 0.2
2018-Jul-28 15:00N 36°48' W 076°17'0 0.0
2018-Jul-28 14:30N 36°48' W 076°17'0 0.0
2018-Jul-28 13:54N 36°48' W 076°17'0 0.0
2018-Jul-28 13:15N 36°48' W 076°17'0 0.0
2018-Jul-28 13:00N 36°48' W 076°17'0 0.0
2018-Jul-28 12:30N 36°48' W 076°17'0 0.0
2018-Jul-28 11:27N 36°48' W 076°17'0 0.0
2018-Jul-28 11:00N 36°48' W 076°17'0 0.5
2018-Jul-28 10:30N 36°48' W 076°17'0 0.2
2018-Jul-28 09:58N 36°48' W 076°18'0 0.0
2018-Jul-28 09:13N 36°48' W 076°18'0 0.0
2018-Jul-28 08:55N 36°48' W 076°18'0 0.0
2018-Jul-28 08:22N 36°48' W 076°18'0 0.0
2018-Jul-28 07:58N 36°48' W 076°18'0 0.0
2018-Jul-28 07:28N 36°48' W 076°18'0 0.0
2018-Jul-28 06:55N 36°48' W 076°18'0 0.0
2018-Jul-28 06:28N 36°48' W 076°18'0 0.0
2018-Jul-28 05:46N 36°48' W 076°18'0 0.0
2018-Jul-28 05:28N 36°48' W 076°18'0 0.0
2018-Jul-28 04:58N 36°48' W 076°18'0 0.0
2018-Jul-28 04:28N 36°48' W 076°18'0 0.0
2018-Jul-28 03:58N 36°48' W 076°18'0 0.0
2018-Jul-28 03:25N 36°48' W 076°18'0 0.0
2018-Jul-28 02:58N 36°48' W 076°18'0 0.0
2018-Jul-28 02:28N 36°48' W 076°18'0 0.0
2018-Jul-28 01:58N 36°48' W 076°18'0 0.0
2018-Jul-28 01:25N 36°48' W 076°18'0 0.0
2018-Jul-28 00:52N 36°48' W 076°18'0 0.0
2018-Jul-28 00:25N 36°48' W 076°18'0 0.0
2018-Jul-27 23:58N 36°48' W 076°18'0 0.0
2018-Jul-27 23:28N 36°48' W 076°18'0 0.0
2018-Jul-27 22:55N 36°48' W 076°18'0 0.0
2018-Jul-27 22:30N 36°48' W 076°18'0 0.0
2018-Jul-27 21:46N 36°48' W 076°18'0 0.0
2018-Jul-27 21:22N 36°48' W 076°18'0 0.0
2018-Jul-27 20:49N 36°48' W 076°18'0 0.0
2018-Jul-27 20:28N 36°48' W 076°18'0 0.0
2018-Jul-27 19:58N 36°48' W 076°18'0 0.0
2018-Jul-27 19:25N 36°48' W 076°18'0 0.0
2018-Jul-27 18:37N 36°48' W 076°18'0 0.0
2018-Jul-27 18:25N 36°48' W 076°18'0 0.0
2018-Jul-27 17:58N 36°48' W 076°18'0 0.0
2018-Jul-27 17:25N 36°48' W 076°18'0 0.0
2018-Jul-27 16:55N 36°48' W 076°18'0 0.0
2018-Jul-27 16:22N 36°48' W 076°18'0 0.0
2018-Jul-27 15:58N 36°48' W 076°18'0 0.0
2018-Jul-27 15:25N 36°48' W 076°18'0 0.0
2018-Jul-27 14:58N 36°48' W 076°18'0 0.0
2018-Jul-27 14:28N 36°48' W 076°18'0 0.0
2018-Jul-27 13:49N 36°48' W 076°18'0 0.0
2018-Jul-27 13:25N 36°48' W 076°18'0 0.0
2018-Jul-27 12:58N 36°48' W 076°18'0 0.0
2018-Jul-27 12:22N 36°48' W 076°18'0 0.0
2018-Jul-27 11:55N 36°48' W 076°18'0 0.0
2018-Jul-27 11:28N 36°48' W 076°18'0 0.0
2018-Jul-27 10:58N 36°48' W 076°18'0 0.0
2018-Jul-27 10:16N 36°48' W 076°18'0 0.0
2018-Jul-27 09:55N 36°48' W 076°18'0 0.0
2018-Jul-27 09:13N 36°48' W 076°18'0 0.0
2018-Jul-27 08:55N 36°48' W 076°18'0 0.0
2018-Jul-27 08:28N 36°48' W 076°18'0 0.0
2018-Jul-27 07:58N 36°48' W 076°18'0 0.0
2018-Jul-27 07:25N 36°48' W 076°18'0 0.0
2018-Jul-27 06:49N 36°48' W 076°18'0 0.0
2018-Jul-27 06:22N 36°48' W 076°18'0 0.0
2018-Jul-27 05:58N 36°48' W 076°18'0 0.0
2018-Jul-27 05:19N 36°48' W 076°18'0 0.0
2018-Jul-27 04:55N 36°48' W 076°18'0 0.0
2018-Jul-27 04:28N 36°48' W 076°18'0 0.0
2018-Jul-27 03:49N 36°48' W 076°18'0 0.0
2018-Jul-27 03:25N 36°48' W 076°18'0 0.0
2018-Jul-27 02:52N 36°48' W 076°18'0 0.0
2018-Jul-27 02:25N 36°48' W 076°18'0 0.0
2018-Jul-27 01:43N 36°48' W 076°18'0 0.0
2018-Jul-27 01:16N 36°48' W 076°18'0 0.0
2018-Jul-27 00:43N 36°48' W 076°18'0 0.0
2018-Jul-27 00:25N 36°48' W 076°18'0 0.0
2018-Jul-26 23:49N 36°48' W 076°18'0 0.0
2018-Jul-26 23:28N 36°48' W 076°18'0 0.0
2018-Jul-26 22:58N 36°48' W 076°18'0 0.0
2018-Jul-26 22:25N 36°48' W 076°18'0 0.0
2018-Jul-26 22:00N 36°48' W 076°18'1 1.6
2018-Jul-26 21:30N 36°49' W 076°17'3 6.4
2018-Jul-26 21:00N 36°52' W 076°19'1 0.6
2018-Jul-26 18:37N 36°53' W 076°20'1 6.8
2018-Jul-26 18:30N 36°52' W 076°20'3 6.6
2018-Jul-26 18:00N 36°49' W 076°17'1 0.7
2018-Jul-26 16:08N 36°48' W 076°18'0 0.0
2018-Jul-26 15:44N 36°48' W 076°18'0 0.0
2018-Jul-26 15:23N 36°48' W 076°18'0 0.0
2018-Jul-26 14:15N 36°48' W 076°18'0 0.1
2018-Jul-26 14:00N 36°48' W 076°18'0 0.0
2018-Jul-26 13:28N 36°48' W 076°18'0 0.0
2018-Jul-26 12:59N 36°48' W 076°18'0 0.0
2018-Jul-26 12:30N 36°48' W 076°18'0 0.0
2018-Jul-26 12:01N 36°48' W 076°18'0 0.7
2018-Jul-26 11:29N 36°48' W 076°17'0 0.0
2018-Jul-26 10:59N 36°48' W 076°17'0 0.0
2018-Jul-26 10:31N 36°48' W 076°17'1 1.7
2018-Jul-26 10:00N 36°49' W 076°17'2 4.2
2018-Jul-26 09:30N 36°51' W 076°18'  
Track history (hours):
 
Tides and Currents Weather Stations Pressure Air Temp Water Temp Dewpoint Dewpoint Depression Visibility Wind Speed Wind Dir Waves Ship Positions

Falcon

Owner: Vane Line Bunkering, Inc., Philadelphia, PA. More information available from US FCC via Universal Licensing System.

Last reported at 2018-Aug-04 15:24 UTC. Time now 2018-Aug-19 15:18 UTC.
Position N 36°53' W 076°20'.
Warning: this ship's position is 14 days out of date.

; draft 3.5 m.

MMSI: 367594260.

Date/timePositionNaut miles runAvg speedWind from/ knotsBaromVisibWave heightAir tempDewpointWater temp
2018-Aug-04 15:24N 36°53' W 076°20'3 7.2
2018-Aug-04 15:00N 36°50' W 076°18'2 4.1
2018-Aug-04 14:30N 36°48' W 076°17'0 0.9
2018-Aug-04 14:00N 36°48' W 076°18'0 0.0
2018-Aug-04 13:30N 36°48' W 076°18'0 0.0
2018-Aug-04 13:00N 36°48' W 076°18'0 0.0
2018-Aug-04 12:30N 36°48' W 076°18'0 0.0
2018-Aug-04 12:00N 36°48' W 076°18'0 0.0
2018-Aug-04 11:30N 36°48' W 076°18'0 0.0
2018-Aug-04 11:00N 36°48' W 076°18'0 0.0
2018-Aug-04 10:30N 36°48' W 076°18'0 0.9
2018-Aug-04 10:00N 36°48' W 076°17'0 0.0
2018-Aug-04 09:30N 36°48' W 076°17'1 3.0
2018-Aug-04 09:00N 36°50' W 076°18'3 5.7
2018-Aug-04 08:30N 36°52' W 076°20'  
2018-Jul-28 16:19N 36°53' W 076°20'2 6.9
2018-Jul-28 16:00N 36°51' W 076°18'3 6.5
2018-Jul-28 15:31N 36°48' W 076°17'0 0.2
2018-Jul-28 15:00N 36°48' W 076°17'0 0.0
2018-Jul-28 14:30N 36°48' W 076°17'0 0.0
2018-Jul-28 13:54N 36°48' W 076°17'0 0.0
2018-Jul-28 13:15N 36°48' W 076°17'0 0.0
2018-Jul-28 13:00N 36°48' W 076°17'0 0.0
2018-Jul-28 12:30N 36°48' W 076°17'0 0.0
2018-Jul-28 11:27N 36°48' W 076°17'0 0.0
2018-Jul-28 11:00N 36°48' W 076°17'0 0.5
2018-Jul-28 10:30N 36°48' W 076°17'0 0.2
2018-Jul-28 09:58N 36°48' W 076°18'0 0.0
2018-Jul-28 09:13N 36°48' W 076°18'0 0.0
2018-Jul-28 08:55N 36°48' W 076°18'0 0.0
2018-Jul-28 08:22N 36°48' W 076°18'0 0.0
2018-Jul-28 07:58N 36°48' W 076°18'0 0.0
2018-Jul-28 07:28N 36°48' W 076°18'0 0.0
2018-Jul-28 06:55N 36°48' W 076°18'0 0.0
2018-Jul-28 06:28N 36°48' W 076°18'0 0.0
2018-Jul-28 05:46N 36°48' W 076°18'0 0.0
2018-Jul-28 05:28N 36°48' W 076°18'0 0.0
2018-Jul-28 04:58N 36°48' W 076°18'0 0.0
2018-Jul-28 04:28N 36°48' W 076°18'0 0.0
2018-Jul-28 03:58N 36°48' W 076°18'0 0.0
2018-Jul-28 03:25N 36°48' W 076°18'0 0.0
2018-Jul-28 02:58N 36°48' W 076°18'0 0.0
2018-Jul-28 02:28N 36°48' W 076°18'0 0.0
2018-Jul-28 01:58N 36°48' W 076°18'0 0.0
2018-Jul-28 01:25N 36°48' W 076°18'0 0.0
2018-Jul-28 00:52N 36°48' W 076°18'0 0.0
2018-Jul-28 00:25N 36°48' W 076°18'0 0.0
2018-Jul-27 23:58N 36°48' W 076°18'0 0.0
2018-Jul-27 23:28N 36°48' W 076°18'0 0.0
2018-Jul-27 22:55N 36°48' W 076°18'0 0.0
2018-Jul-27 22:30N 36°48' W 076°18'0 0.0
2018-Jul-27 21:46N 36°48' W 076°18'0 0.0
2018-Jul-27 21:22N 36°48' W 076°18'0 0.0
2018-Jul-27 20:49N 36°48' W 076°18'0 0.0
2018-Jul-27 20:28N 36°48' W 076°18'0 0.0
2018-Jul-27 19:58N 36°48' W 076°18'0 0.0
2018-Jul-27 19:25N 36°48' W 076°18'0 0.0
2018-Jul-27 18:37N 36°48' W 076°18'0 0.0
2018-Jul-27 18:25N 36°48' W 076°18'0 0.0
2018-Jul-27 17:58N 36°48' W 076°18'0 0.0
2018-Jul-27 17:25N 36°48' W 076°18'0 0.0
2018-Jul-27 16:55N 36°48' W 076°18'0 0.0
2018-Jul-27 16:22N 36°48' W 076°18'0 0.0
2018-Jul-27 15:58N 36°48' W 076°18'0 0.0
2018-Jul-27 15:25N 36°48' W 076°18'0 0.0
2018-Jul-27 14:58N 36°48' W 076°18'0 0.0
2018-Jul-27 14:28N 36°48' W 076°18'0 0.0
2018-Jul-27 13:49N 36°48' W 076°18'0 0.0
2018-Jul-27 13:25N 36°48' W 076°18'0 0.0
2018-Jul-27 12:58N 36°48' W 076°18'0 0.0
2018-Jul-27 12:22N 36°48' W 076°18'0 0.0
2018-Jul-27 11:55N 36°48' W 076°18'0 0.0
2018-Jul-27 11:28N 36°48' W 076°18'0 0.0
2018-Jul-27 10:58N 36°48' W 076°18'0 0.0
2018-Jul-27 10:16N 36°48' W 076°18'0 0.0
2018-Jul-27 09:55N 36°48' W 076°18'0 0.0
2018-Jul-27 09:13N 36°48' W 076°18'0 0.0
2018-Jul-27 08:55N 36°48' W 076°18'0 0.0
2018-Jul-27 08:28N 36°48' W 076°18'0 0.0
2018-Jul-27 07:58N 36°48' W 076°18'0 0.0
2018-Jul-27 07:25N 36°48' W 076°18'0 0.0
2018-Jul-27 06:49N 36°48' W 076°18'0 0.0
2018-Jul-27 06:22N 36°48' W 076°18'0 0.0
2018-Jul-27 05:58N 36°48' W 076°18'0 0.0
2018-Jul-27 05:19N 36°48' W 076°18'0 0.0
2018-Jul-27 04:55N 36°48' W 076°18'0 0.0
2018-Jul-27 04:28N 36°48' W 076°18'0 0.0
2018-Jul-27 03:49N 36°48' W 076°18'0 0.0
2018-Jul-27 03:25N 36°48' W 076°18'0 0.0
2018-Jul-27 02:52N 36°48' W 076°18'0 0.0
2018-Jul-27 02:25N 36°48' W 076°18'0 0.0
2018-Jul-27 01:43N 36°48' W 076°18'0 0.0
2018-Jul-27 01:16N 36°48' W 076°18'0 0.0
2018-Jul-27 00:43N 36°48' W 076°18'0 0.0
2018-Jul-27 00:25N 36°48' W 076°18'0 0.0
2018-Jul-26 23:49N 36°48' W 076°18'0 0.0
2018-Jul-26 23:28N 36°48' W 076°18'0 0.0
2018-Jul-26 22:58N 36°48' W 076°18'0 0.0
2018-Jul-26 22:25N 36°48' W 076°18'0 0.0
2018-Jul-26 22:00N 36°48' W 076°18'1 1.6
2018-Jul-26 21:30N 36°49' W 076°17'3 6.4
2018-Jul-26 21:00N 36°52' W 076°19'1 0.6
2018-Jul-26 18:37N 36°53' W 076°20'1 6.8
2018-Jul-26 18:30N 36°52' W 076°20'3 6.6
2018-Jul-26 18:00N 36°49' W 076°17'1 0.7
2018-Jul-26 16:08N 36°48' W 076°18'0 0.0
2018-Jul-26 15:44N 36°48' W 076°18'0 0.0
2018-Jul-26 15:23N 36°48' W 076°18'0 0.0
2018-Jul-26 14:15N 36°48' W 076°18'0 0.1
2018-Jul-26 14:00N 36°48' W 076°18'0 0.0
2018-Jul-26 13:28N 36°48' W 076°18'0 0.0
2018-Jul-26 12:59N 36°48' W 076°18'0 0.0
2018-Jul-26 12:30N 36°48' W 076°18'0 0.0
2018-Jul-26 12:01N 36°48' W 076°18'0 0.7
2018-Jul-26 11:29N 36°48' W 076°17'0 0.0
2018-Jul-26 10:59N 36°48' W 076°17'0 0.0
2018-Jul-26 10:31N 36°48' W 076°17'1 1.7
2018-Jul-26 10:00N 36°49' W 076°17'2 4.2
2018-Jul-26 09:30N 36°51' W 076°18'  

Dump ship's entire track history